sensor_id;sensor_type;location;lat;lon;timestamp;P1;durP1;ratioP1;P2;durP2;ratioP2
15764;SDS011;7983;50.744;7.086;2024-01-15T00:00:51;8.53;;;5.73;;
15764;SDS011;7983;50.744;7.086;2024-01-15T00:03:17;9.13;;;5.93;;
15764;SDS011;7983;50.744;7.086;2024-01-15T00:05:42;11.67;;;6.80;;
15764;SDS011;7983;50.744;7.086;2024-01-15T00:08:08;10.17;;;6.27;;
15764;SDS011;7983;50.744;7.086;2024-01-15T00:10:36;13.10;;;6.13;;
15764;SDS011;7983;50.744;7.086;2024-01-15T00:13:02;14.20;;;6.97;;
15764;SDS011;7983;50.744;7.086;2024-01-15T00:15:28;12.37;;;7.20;;
15764;SDS011;7983;50.744;7.086;2024-01-15T00:17:55;10.77;;;6.63;;
15764;SDS011;7983;50.744;7.086;2024-01-15T00:20:23;12.60;;;6.60;;
15764;SDS011;7983;50.744;7.086;2024-01-15T00:22:49;13.57;;;6.97;;
15764;SDS011;7983;50.744;7.086;2024-01-15T00:25:14;10.90;;;6.63;;
15764;SDS011;7983;50.744;7.086;2024-01-15T00:27:42;13.20;;;6.83;;
15764;SDS011;7983;50.744;7.086;2024-01-15T00:30:08;14.13;;;6.67;;
15764;SDS011;7983;50.744;7.086;2024-01-15T00:32:39;10.80;;;6.00;;
15764;SDS011;7983;50.744;7.086;2024-01-15T00:35:07;10.90;;;5.83;;
15764;SDS011;7983;50.744;7.086;2024-01-15T00:37:32;11.03;;;6.30;;
15764;SDS011;7983;50.744;7.086;2024-01-15T00:40:00;9.17;;;5.83;;
15764;SDS011;7983;50.744;7.086;2024-01-15T00:42:27;11.77;;;5.97;;
15764;SDS011;7983;50.744;7.086;2024-01-15T00:44:55;9.53;;;5.57;;
15764;SDS011;7983;50.744;7.086;2024-01-15T00:47:21;11.40;;;6.40;;
15764;SDS011;7983;50.744;7.086;2024-01-15T00:49:47;13.70;;;6.83;;
15764;SDS011;7983;50.744;7.086;2024-01-15T00:52:12;12.03;;;6.43;;
15764;SDS011;7983;50.744;7.086;2024-01-15T00:54:40;10.93;;;6.53;;
15764;SDS011;7983;50.744;7.086;2024-01-15T00:57:08;10.37;;;6.67;;
15764;SDS011;7983;50.744;7.086;2024-01-15T00:59:34;12.77;;;7.20;;
15764;SDS011;7983;50.744;7.086;2024-01-15T01:01:59;11.80;;;6.70;;
15764;SDS011;7983;50.744;7.086;2024-01-15T01:04:25;9.67;;;6.63;;
15764;SDS011;7983;50.744;7.086;2024-01-15T01:06:50;10.47;;;6.00;;
15764;SDS011;7983;50.744;7.086;2024-01-15T01:09:16;11.70;;;6.40;;
15764;SDS011;7983;50.744;7.086;2024-01-15T01:11:44;11.03;;;6.10;;
15764;SDS011;7983;50.744;7.086;2024-01-15T01:14:09;10.87;;;6.60;;
15764;SDS011;7983;50.744;7.086;2024-01-15T01:16:35;13.83;;;6.93;;
15764;SDS011;7983;50.744;7.086;2024-01-15T01:19:04;10.23;;;6.57;;
15764;SDS011;7983;50.744;7.086;2024-01-15T01:21:31;12.03;;;6.50;;
15764;SDS011;7983;50.744;7.086;2024-01-15T01:24:01;10.90;;;6.37;;
15764;SDS011;7983;50.744;7.086;2024-01-15T01:26:31;9.50;;;5.67;;
15764;SDS011;7983;50.744;7.086;2024-01-15T01:28:59;9.13;;;5.90;;
15764;SDS011;7983;50.744;7.086;2024-01-15T01:31:25;10.30;;;5.87;;
15764;SDS011;7983;50.744;7.086;2024-01-15T01:33:51;11.10;;;5.90;;
15764;SDS011;7983;50.744;7.086;2024-01-15T01:36:21;13.03;;;7.13;;
15764;SDS011;7983;50.744;7.086;2024-01-15T01:38:46;11.10;;;6.57;;
15764;SDS011;7983;50.744;7.086;2024-01-15T01:41:12;9.33;;;5.63;;
15764;SDS011;7983;50.744;7.086;2024-01-15T01:43:43;10.77;;;5.60;;
15764;SDS011;7983;50.744;7.086;2024-01-15T01:46:08;10.60;;;5.97;;
15764;SDS011;7983;50.744;7.086;2024-01-15T01:48:34;9.53;;;5.73;;
15764;SDS011;7983;50.744;7.086;2024-01-15T01:51:03;9.97;;;6.23;;
15764;SDS011;7983;50.744;7.086;2024-01-15T01:53:29;10.97;;;5.83;;
15764;SDS011;7983;50.744;7.086;2024-01-15T01:56:01;10.00;;;5.93;;
15764;SDS011;7983;50.744;7.086;2024-01-15T01:58:30;10.27;;;5.63;;
15764;SDS011;7983;50.744;7.086;2024-01-15T02:00:58;9.23;;;5.77;;
15764;SDS011;7983;50.744;7.086;2024-01-15T02:03:27;11.70;;;6.30;;
15764;SDS011;7983;50.744;7.086;2024-01-15T02:05:53;10.73;;;6.33;;
15764;SDS011;7983;50.744;7.086;2024-01-15T02:08:19;13.67;;;7.33;;
15764;SDS011;7983;50.744;7.086;2024-01-15T02:10:47;13.33;;;7.20;;
15764;SDS011;7983;50.744;7.086;2024-01-15T02:13:15;13.07;;;7.43;;
15764;SDS011;7983;50.744;7.086;2024-01-15T02:15:42;13.70;;;7.43;;
15764;SDS011;7983;50.744;7.086;2024-01-15T02:18:07;11.93;;;7.20;;
15764;SDS011;7983;50.744;7.086;2024-01-15T02:20:35;15.57;;;8.47;;
15764;SDS011;7983;50.744;7.086;2024-01-15T02:23:07;13.70;;;7.80;;
15764;SDS011;7983;50.744;7.086;2024-01-15T02:25:38;15.67;;;9.03;;
15764;SDS011;7983;50.744;7.086;2024-01-15T02:28:07;13.80;;;7.67;;
15764;SDS011;7983;50.744;7.086;2024-01-15T02:30:39;16.70;;;8.37;;
15764;SDS011;7983;50.744;7.086;2024-01-15T02:33:06;14.60;;;8.57;;
15764;SDS011;7983;50.744;7.086;2024-01-15T02:35:33;15.37;;;8.47;;
15764;SDS011;7983;50.744;7.086;2024-01-15T02:38:01;14.13;;;8.33;;
15764;SDS011;7983;50.744;7.086;2024-01-15T02:40:27;14.07;;;7.70;;
15764;SDS011;7983;50.744;7.086;2024-01-15T02:42:56;11.67;;;7.30;;
15764;SDS011;7983;50.744;7.086;2024-01-15T02:45:21;13.90;;;7.53;;
15764;SDS011;7983;50.744;7.086;2024-01-15T02:47:50;14.07;;;7.77;;
15764;SDS011;7983;50.744;7.086;2024-01-15T02:50:16;15.77;;;8.37;;
15764;SDS011;7983;50.744;7.086;2024-01-15T02:52:46;10.63;;;6.70;;
15764;SDS011;7983;50.744;7.086;2024-01-15T02:55:12;12.90;;;7.63;;
15764;SDS011;7983;50.744;7.086;2024-01-15T02:57:37;16.07;;;8.70;;
15764;SDS011;7983;50.744;7.086;2024-01-15T03:00:06;18.83;;;9.30;;
15764;SDS011;7983;50.744;7.086;2024-01-15T03:02:32;13.90;;;8.60;;
15764;SDS011;7983;50.744;7.086;2024-01-15T03:05:00;14.27;;;8.13;;
15764;SDS011;7983;50.744;7.086;2024-01-15T03:07:27;15.13;;;8.33;;
15764;SDS011;7983;50.744;7.086;2024-01-15T03:09:53;12.67;;;7.97;;
15764;SDS011;7983;50.744;7.086;2024-01-15T03:12:19;14.07;;;8.67;;
15764;SDS011;7983;50.744;7.086;2024-01-15T03:14:47;14.47;;;8.23;;
15764;SDS011;7983;50.744;7.086;2024-01-15T03:17:14;14.93;;;8.40;;
15764;SDS011;7983;50.744;7.086;2024-01-15T03:19:42;12.60;;;7.83;;
15764;SDS011;7983;50.744;7.086;2024-01-15T03:22:08;14.87;;;8.77;;
15764;SDS011;7983;50.744;7.086;2024-01-15T03:24:34;14.07;;;7.63;;
15764;SDS011;7983;50.744;7.086;2024-01-15T03:27:04;12.17;;;7.73;;
15764;SDS011;7983;50.744;7.086;2024-01-15T03:29:30;12.40;;;7.67;;
15764;SDS011;7983;50.744;7.086;2024-01-15T03:31:58;13.20;;;7.90;;
15764;SDS011;7983;50.744;7.086;2024-01-15T03:34:26;14.23;;;7.43;;
15764;SDS011;7983;50.744;7.086;2024-01-15T03:36:59;16.03;;;8.33;;
15764;SDS011;7983;50.744;7.086;2024-01-15T03:39:26;13.60;;;7.87;;
15764;SDS011;7983;50.744;7.086;2024-01-15T03:41:54;12.33;;;7.40;;
15764;SDS011;7983;50.744;7.086;2024-01-15T03:44:23;11.93;;;7.23;;
15764;SDS011;7983;50.744;7.086;2024-01-15T03:46:51;11.90;;;7.03;;
15764;SDS011;7983;50.744;7.086;2024-01-15T03:49:16;10.43;;;6.73;;
15764;SDS011;7983;50.744;7.086;2024-01-15T03:51:42;11.00;;;7.00;;
15764;SDS011;7983;50.744;7.086;2024-01-15T03:54:08;10.70;;;6.60;;
15764;SDS011;7983;50.744;7.086;2024-01-15T03:56:36;12.53;;;7.57;;
15764;SDS011;7983;50.744;7.086;2024-01-15T03:59:01;10.33;;;7.00;;
15764;SDS011;7983;50.744;7.086;2024-01-15T04:01:28;11.80;;;7.53;;
15764;SDS011;7983;50.744;7.086;2024-01-15T04:03:54;12.13;;;7.00;;
15764;SDS011;7983;50.744;7.086;2024-01-15T04:06:24;10.07;;;6.30;;
15764;SDS011;7983;50.744;7.086;2024-01-15T04:08:52;10.33;;;6.83;;
15764;SDS011;7983;50.744;7.086;2024-01-15T04:11:18;13.13;;;7.47;;
15764;SDS011;7983;50.744;7.086;2024-01-15T04:13:44;11.67;;;7.27;;
15764;SDS011;7983;50.744;7.086;2024-01-15T04:16:09;11.20;;;7.37;;
15764;SDS011;7983;50.744;7.086;2024-01-15T04:18:35;10.57;;;6.70;;
15764;SDS011;7983;50.744;7.086;2024-01-15T04:21:05;13.23;;;7.37;;
15764;SDS011;7983;50.744;7.086;2024-01-15T04:23:32;10.03;;;6.90;;
15764;SDS011;7983;50.744;7.086;2024-01-15T04:26:00;10.70;;;6.30;;
15764;SDS011;7983;50.744;7.086;2024-01-15T04:28:26;10.90;;;6.50;;
15764;SDS011;7983;50.744;7.086;2024-01-15T04:30:53;10.70;;;6.50;;
15764;SDS011;7983;50.744;7.086;2024-01-15T04:33:19;10.93;;;6.77;;
15764;SDS011;7983;50.744;7.086;2024-01-15T04:35:45;11.60;;;6.77;;
15764;SDS011;7983;50.744;7.086;2024-01-15T04:38:13;8.60;;;5.63;;
15764;SDS011;7983;50.744;7.086;2024-01-15T04:40:38;8.40;;;5.40;;
15764;SDS011;7983;50.744;7.086;2024-01-15T04:43:06;8.53;;;5.77;;
15764;SDS011;7983;50.744;7.086;2024-01-15T04:45:32;10.03;;;6.30;;
15764;SDS011;7983;50.744;7.086;2024-01-15T04:47:57;9.43;;;5.80;;
15764;SDS011;7983;50.744;7.086;2024-01-15T04:50:23;7.00;;;5.03;;
15764;SDS011;7983;50.744;7.086;2024-01-15T04:52:51;6.67;;;4.87;;
15764;SDS011;7983;50.744;7.086;2024-01-15T04:55:16;8.67;;;5.47;;
15764;SDS011;7983;50.744;7.086;2024-01-15T04:57:42;7.30;;;4.70;;
15764;SDS011;7983;50.744;7.086;2024-01-15T05:00:09;6.53;;;4.70;;
15764;SDS011;7983;50.744;7.086;2024-01-15T05:02:37;6.97;;;4.57;;
15764;SDS011;7983;50.744;7.086;2024-01-15T05:05:10;7.67;;;4.83;;
15764;SDS011;7983;50.744;7.086;2024-01-15T05:07:36;6.97;;;4.70;;
15764;SDS011;7983;50.744;7.086;2024-01-15T05:10:01;8.43;;;5.57;;
15764;SDS011;7983;50.744;7.086;2024-01-15T05:12:27;8.07;;;5.17;;
15764;SDS011;7983;50.744;7.086;2024-01-15T05:14:55;7.43;;;5.07;;
15764;SDS011;7983;50.744;7.086;2024-01-15T05:17:21;7.53;;;5.30;;
15764;SDS011;7983;50.744;7.086;2024-01-15T05:19:46;9.13;;;5.37;;
15764;SDS011;7983;50.744;7.086;2024-01-15T05:22:14;9.30;;;4.97;;
15764;SDS011;7983;50.744;7.086;2024-01-15T05:24:40;8.53;;;5.80;;
15764;SDS011;7983;50.744;7.086;2024-01-15T05:27:05;7.17;;;4.90;;
15764;SDS011;7983;50.744;7.086;2024-01-15T05:29:31;9.67;;;5.43;;
15764;SDS011;7983;50.744;7.086;2024-01-15T05:31:57;9.30;;;5.30;;
15764;SDS011;7983;50.744;7.086;2024-01-15T05:34:22;8.20;;;5.50;;
15764;SDS011;7983;50.744;7.086;2024-01-15T05:36:48;7.00;;;4.77;;
15764;SDS011;7983;50.744;7.086;2024-01-15T05:39:16;7.53;;;5.37;;
15764;SDS011;7983;50.744;7.086;2024-01-15T05:41:41;8.57;;;5.53;;
15764;SDS011;7983;50.744;7.086;2024-01-15T05:44:09;11.30;;;6.70;;
15764;SDS011;7983;50.744;7.086;2024-01-15T05:46:35;10.87;;;6.03;;
15764;SDS011;7983;50.744;7.086;2024-01-15T05:49:01;8.37;;;5.50;;
15764;SDS011;7983;50.744;7.086;2024-01-15T05:51:26;8.30;;;5.50;;
15764;SDS011;7983;50.744;7.086;2024-01-15T05:53:52;9.67;;;5.37;;
15764;SDS011;7983;50.744;7.086;2024-01-15T05:56:20;8.90;;;5.97;;
15764;SDS011;7983;50.744;7.086;2024-01-15T05:58:45;7.17;;;5.00;;
15764;SDS011;7983;50.744;7.086;2024-01-15T06:01:11;7.83;;;5.17;;
15764;SDS011;7983;50.744;7.086;2024-01-15T06:03:36;7.90;;;5.50;;
15764;SDS011;7983;50.744;7.086;2024-01-15T06:06:04;7.53;;;5.33;;
15764;SDS011;7983;50.744;7.086;2024-01-15T06:08:32;9.70;;;6.30;;
15764;SDS011;7983;50.744;7.086;2024-01-15T06:10:58;10.20;;;6.40;;
15764;SDS011;7983;50.744;7.086;2024-01-15T06:13:24;11.50;;;6.93;;
15764;SDS011;7983;50.744;7.086;2024-01-15T06:15:49;10.23;;;6.07;;
15764;SDS011;7983;50.744;7.086;2024-01-15T06:18:15;7.80;;;5.87;;
15764;SDS011;7983;50.744;7.086;2024-01-15T06:20:40;8.50;;;6.27;;
15764;SDS011;7983;50.744;7.086;2024-01-15T06:23:08;10.73;;;6.40;;
15764;SDS011;7983;50.744;7.086;2024-01-15T06:25:36;10.57;;;6.30;;
15764;SDS011;7983;50.744;7.086;2024-01-15T06:28:02;7.93;;;5.80;;
15764;SDS011;7983;50.744;7.086;2024-01-15T06:30:30;9.33;;;5.37;;
15764;SDS011;7983;50.744;7.086;2024-01-15T06:32:55;8.20;;;5.40;;
15764;SDS011;7983;50.744;7.086;2024-01-15T06:35:23;8.43;;;5.90;;
15764;SDS011;7983;50.744;7.086;2024-01-15T06:37:49;7.93;;;5.50;;
15764;SDS011;7983;50.744;7.086;2024-01-15T06:40:14;7.80;;;5.27;;
15764;SDS011;7983;50.744;7.086;2024-01-15T06:42:40;7.63;;;5.20;;
15764;SDS011;7983;50.744;7.086;2024-01-15T06:45:08;8.23;;;5.57;;
15764;SDS011;7983;50.744;7.086;2024-01-15T06:47:36;8.20;;;5.63;;
15764;SDS011;7983;50.744;7.086;2024-01-15T06:50:04;8.40;;;6.00;;
15764;SDS011;7983;50.744;7.086;2024-01-15T06:52:32;9.63;;;6.03;;
15764;SDS011;7983;50.744;7.086;2024-01-15T06:55:03;8.43;;;5.83;;
15764;SDS011;7983;50.744;7.086;2024-01-15T06:57:29;9.93;;;6.67;;
15764;SDS011;7983;50.744;7.086;2024-01-15T06:59:54;10.60;;;6.43;;
15764;SDS011;7983;50.744;7.086;2024-01-15T07:02:20;9.57;;;6.80;;
15764;SDS011;7983;50.744;7.086;2024-01-15T07:04:49;10.10;;;6.60;;
15764;SDS011;7983;50.744;7.086;2024-01-15T07:07:14;9.60;;;6.63;;
15764;SDS011;7983;50.744;7.086;2024-01-15T07:09:40;7.77;;;5.90;;
15764;SDS011;7983;50.744;7.086;2024-01-15T07:12:06;10.47;;;6.90;;
15764;SDS011;7983;50.744;7.086;2024-01-15T07:14:34;8.93;;;6.23;;
15764;SDS011;7983;50.744;7.086;2024-01-15T07:17:00;11.17;;;6.57;;
15764;SDS011;7983;50.744;7.086;2024-01-15T07:19:26;11.87;;;6.67;;
15764;SDS011;7983;50.744;7.086;2024-01-15T07:21:51;11.20;;;6.93;;
15764;SDS011;7983;50.744;7.086;2024-01-15T07:24:17;8.63;;;6.30;;
15764;SDS011;7983;50.744;7.086;2024-01-15T07:26:45;10.13;;;6.73;;
15764;SDS011;7983;50.744;7.086;2024-01-15T07:29:10;8.93;;;6.13;;
15764;SDS011;7983;50.744;7.086;2024-01-15T07:31:36;11.03;;;7.27;;
15764;SDS011;7983;50.744;7.086;2024-01-15T07:34:01;11.80;;;7.30;;
15764;SDS011;7983;50.744;7.086;2024-01-15T07:36:27;9.00;;;6.47;;
15764;SDS011;7983;50.744;7.086;2024-01-15T07:38:52;11.00;;;6.40;;
15764;SDS011;7983;50.744;7.086;2024-01-15T07:41:20;9.10;;;5.97;;
15764;SDS011;7983;50.744;7.086;2024-01-15T07:43:46;9.73;;;6.50;;
15764;SDS011;7983;50.744;7.086;2024-01-15T07:46:11;8.30;;;5.87;;
15764;SDS011;7983;50.744;7.086;2024-01-15T07:48:37;9.00;;;5.83;;
15764;SDS011;7983;50.744;7.086;2024-01-15T07:51:05;7.50;;;5.27;;
15764;SDS011;7983;50.744;7.086;2024-01-15T07:53:33;7.07;;;5.50;;
15764;SDS011;7983;50.744;7.086;2024-01-15T07:55:59;8.40;;;5.73;;
15764;SDS011;7983;50.744;7.086;2024-01-15T07:58:29;8.23;;;5.53;;
15764;SDS011;7983;50.744;7.086;2024-01-15T08:00:55;7.13;;;5.23;;
15764;SDS011;7983;50.744;7.086;2024-01-15T08:03:25;7.43;;;5.00;;
15764;SDS011;7983;50.744;7.086;2024-01-15T08:05:50;8.73;;;4.93;;
15764;SDS011;7983;50.744;7.086;2024-01-15T08:08:17;7.53;;;4.73;;
15764;SDS011;7983;50.744;7.086;2024-01-15T08:10:43;7.33;;;5.37;;
15764;SDS011;7983;50.744;7.086;2024-01-15T08:13:09;7.93;;;5.50;;
15764;SDS011;7983;50.744;7.086;2024-01-15T08:15:37;8.17;;;5.30;;
15764;SDS011;7983;50.744;7.086;2024-01-15T08:18:03;8.73;;;6.23;;
15764;SDS011;7983;50.744;7.086;2024-01-15T08:20:30;9.00;;;6.23;;
15764;SDS011;7983;50.744;7.086;2024-01-15T08:22:58;10.47;;;5.90;;
15764;SDS011;7983;50.744;7.086;2024-01-15T08:25:24;12.17;;;5.90;;
15764;SDS011;7983;50.744;7.086;2024-01-15T08:27:51;12.87;;;5.60;;
15764;SDS011;7983;50.744;7.086;2024-01-15T08:30:17;11.43;;;5.53;;
15764;SDS011;7983;50.744;7.086;2024-01-15T08:32:45;12.53;;;6.13;;
15764;SDS011;7983;50.744;7.086;2024-01-15T08:35:13;9.30;;;6.00;;
15764;SDS011;7983;50.744;7.086;2024-01-15T08:37:40;9.60;;;5.33;;
15764;SDS011;7983;50.744;7.086;2024-01-15T08:40:06;9.77;;;5.70;;
15764;SDS011;7983;50.744;7.086;2024-01-15T08:42:37;8.07;;;5.63;;
15764;SDS011;7983;50.744;7.086;2024-01-15T08:45:03;10.37;;;5.90;;
15764;SDS011;7983;50.744;7.086;2024-01-15T08:47:31;8.70;;;5.47;;
15764;SDS011;7983;50.744;7.086;2024-01-15T08:49:59;9.50;;;5.67;;
15764;SDS011;7983;50.744;7.086;2024-01-15T08:52:28;9.93;;;5.27;;
15764;SDS011;7983;50.744;7.086;2024-01-15T08:54:54;8.70;;;5.80;;
15764;SDS011;7983;50.744;7.086;2024-01-15T08:57:21;8.17;;;5.13;;
15764;SDS011;7983;50.744;7.086;2024-01-15T08:59:51;7.93;;;5.73;;
15764;SDS011;7983;50.744;7.086;2024-01-15T09:02:17;9.20;;;5.70;;
15764;SDS011;7983;50.744;7.086;2024-01-15T09:04:42;9.30;;;6.10;;
15764;SDS011;7983;50.744;7.086;2024-01-15T09:07:08;10.37;;;6.30;;
15764;SDS011;7983;50.744;7.086;2024-01-15T09:09:34;10.70;;;6.20;;
15764;SDS011;7983;50.744;7.086;2024-01-15T09:12:02;11.97;;;6.43;;
15764;SDS011;7983;50.744;7.086;2024-01-15T09:14:27;10.53;;;6.20;;
15764;SDS011;7983;50.744;7.086;2024-01-15T09:16:56;10.00;;;5.27;;
15764;SDS011;7983;50.744;7.086;2024-01-15T09:19:22;9.47;;;5.37;;
15764;SDS011;7983;50.744;7.086;2024-01-15T09:21:52;10.40;;;6.10;;
15764;SDS011;7983;50.744;7.086;2024-01-15T09:24:20;13.03;;;6.53;;
15764;SDS011;7983;50.744;7.086;2024-01-15T09:26:46;10.43;;;6.47;;
15764;SDS011;7983;50.744;7.086;2024-01-15T09:29:14;10.53;;;5.97;;
15764;SDS011;7983;50.744;7.086;2024-01-15T09:31:43;8.97;;;5.60;;
15764;SDS011;7983;50.744;7.086;2024-01-15T09:34:11;9.90;;;5.67;;
15764;SDS011;7983;50.744;7.086;2024-01-15T09:36:39;10.87;;;6.23;;
15764;SDS011;7983;50.744;7.086;2024-01-15T09:39:08;8.30;;;5.73;;
15764;SDS011;7983;50.744;7.086;2024-01-15T09:41:39;8.27;;;5.60;;
15764;SDS011;7983;50.744;7.086;2024-01-15T09:44:06;9.07;;;5.30;;
15764;SDS011;7983;50.744;7.086;2024-01-15T09:46:35;7.30;;;4.93;;
15764;SDS011;7983;50.744;7.086;2024-01-15T09:49:01;8.23;;;5.10;;
15764;SDS011;7983;50.744;7.086;2024-01-15T09:51:27;8.13;;;5.00;;
15764;SDS011;7983;50.744;7.086;2024-01-15T09:53:56;7.43;;;4.90;;
15764;SDS011;7983;50.744;7.086;2024-01-15T09:56:22;7.77;;;4.60;;
15764;SDS011;7983;50.744;7.086;2024-01-15T09:58:48;7.60;;;5.00;;
15764;SDS011;7983;50.744;7.086;2024-01-15T10:01:16;6.83;;;4.43;;
15764;SDS011;7983;50.744;7.086;2024-01-15T10:03:47;6.13;;;4.50;;
15764;SDS011;7983;50.744;7.086;2024-01-15T10:06:19;5.50;;;4.53;;
15764;SDS011;7983;50.744;7.086;2024-01-15T10:08:48;5.50;;;4.17;;
15764;SDS011;7983;50.744;7.086;2024-01-15T10:11:17;5.77;;;4.57;;
15764;SDS011;7983;50.744;7.086;2024-01-15T10:13:47;5.33;;;4.20;;
15764;SDS011;7983;50.744;7.086;2024-01-15T10:16:18;5.00;;;4.00;;
15764;SDS011;7983;50.744;7.086;2024-01-15T10:18:48;5.80;;;4.00;;
15764;SDS011;7983;50.744;7.086;2024-01-15T10:21:16;7.33;;;4.40;;
15764;SDS011;7983;50.744;7.086;2024-01-15T10:23:41;6.67;;;4.60;;
15764;SDS011;7983;50.744;7.086;2024-01-15T10:26:09;6.17;;;4.03;;
15764;SDS011;7983;50.744;7.086;2024-01-15T10:28:37;6.57;;;3.60;;
15764;SDS011;7983;50.744;7.086;2024-01-15T10:31:02;4.37;;;3.50;;
15764;SDS011;7983;50.744;7.086;2024-01-15T10:33:33;4.87;;;3.77;;
15764;SDS011;7983;50.744;7.086;2024-01-15T10:35:59;6.30;;;4.40;;
15764;SDS011;7983;50.744;7.086;2024-01-15T10:38:34;7.50;;;4.67;;
15764;SDS011;7983;50.744;7.086;2024-01-15T10:41:04;6.40;;;4.90;;
15764;SDS011;7983;50.744;7.086;2024-01-15T10:43:30;6.33;;;4.67;;
15764;SDS011;7983;50.744;7.086;2024-01-15T10:45:59;8.63;;;5.33;;
15764;SDS011;7983;50.744;7.086;2024-01-15T10:48:24;5.97;;;4.70;;
15764;SDS011;7983;50.744;7.086;2024-01-15T10:50:55;6.50;;;4.50;;
15764;SDS011;7983;50.744;7.086;2024-01-15T10:53:28;6.10;;;4.03;;
15764;SDS011;7983;50.744;7.086;2024-01-15T10:55:59;5.30;;;4.30;;
15764;SDS011;7983;50.744;7.086;2024-01-15T10:58:26;5.03;;;4.27;;
15764;SDS011;7983;50.744;7.086;2024-01-15T11:00:56;5.57;;;4.03;;
15764;SDS011;7983;50.744;7.086;2024-01-15T11:03:22;4.93;;;4.17;;
15764;SDS011;7983;50.744;7.086;2024-01-15T11:05:50;4.87;;;3.87;;
15764;SDS011;7983;50.744;7.086;2024-01-15T11:08:16;5.53;;;4.10;;
15764;SDS011;7983;50.744;7.086;2024-01-15T11:10:48;5.60;;;3.93;;
15764;SDS011;7983;50.744;7.086;2024-01-15T11:15:55;5.00;;;3.20;;
15764;SDS011;7983;50.744;7.086;2024-01-15T11:18:22;6.70;;;3.50;;
15764;SDS011;7983;50.744;7.086;2024-01-15T11:21:25;4.33;;;3.33;;
15764;SDS011;7983;50.744;7.086;2024-01-15T11:23:43;5.07;;;3.70;;
15764;SDS011;7983;50.744;7.086;2024-01-15T11:28:59;4.20;;;3.60;;
15764;SDS011;7983;50.744;7.086;2024-01-15T11:34:08;4.80;;;3.80;;
15764;SDS011;7983;50.744;7.086;2024-01-15T11:41:59;4.43;;;3.57;;
15764;SDS011;7983;50.744;7.086;2024-01-15T11:44:26;5.03;;;4.10;;
15764;SDS011;7983;50.744;7.086;2024-01-15T11:47:02;5.00;;;4.07;;
15764;SDS011;7983;50.744;7.086;2024-01-15T11:52:24;5.00;;;4.33;;
15764;SDS011;7983;50.744;7.086;2024-01-15T12:00:08;4.80;;;3.60;;
15764;SDS011;7983;50.744;7.086;2024-01-15T12:02:41;5.30;;;4.17;;
15764;SDS011;7983;50.744;7.086;2024-01-15T12:05:11;5.47;;;4.20;;
15764;SDS011;7983;50.744;7.086;2024-01-15T12:07:41;5.53;;;4.70;;
15764;SDS011;7983;50.744;7.086;2024-01-15T12:10:11;6.70;;;4.97;;
15764;SDS011;7983;50.744;7.086;2024-01-15T12:15:28;5.20;;;4.13;;
15764;SDS011;7983;50.744;7.086;2024-01-15T12:17:58;6.33;;;4.10;;
15764;SDS011;7983;50.744;7.086;2024-01-15T12:20:27;7.90;;;4.57;;
15764;SDS011;7983;50.744;7.086;2024-01-15T12:22:54;8.00;;;3.90;;
15764;SDS011;7983;50.744;7.086;2024-01-15T12:25:23;5.27;;;4.13;;
15764;SDS011;7983;50.744;7.086;2024-01-15T12:27:52;6.90;;;4.13;;
15764;SDS011;7983;50.744;7.086;2024-01-15T12:30:18;7.57;;;4.50;;
15764;SDS011;7983;50.744;7.086;2024-01-15T12:32:44;7.20;;;4.83;;
15764;SDS011;7983;50.744;7.086;2024-01-15T12:35:12;7.80;;;4.93;;
15764;SDS011;7983;50.744;7.086;2024-01-15T12:37:40;9.57;;;4.83;;
15764;SDS011;7983;50.744;7.086;2024-01-15T12:40:09;5.80;;;4.63;;
15764;SDS011;7983;50.744;7.086;2024-01-15T12:42:36;5.13;;;3.93;;
15764;SDS011;7983;50.744;7.086;2024-01-15T12:45:02;6.50;;;4.17;;
15764;SDS011;7983;50.744;7.086;2024-01-15T12:47:31;8.20;;;4.43;;
15764;SDS011;7983;50.744;7.086;2024-01-15T12:49:57;6.57;;;4.33;;
15764;SDS011;7983;50.744;7.086;2024-01-15T12:52:29;6.07;;;4.67;;
15764;SDS011;7983;50.744;7.086;2024-01-15T12:54:55;7.47;;;3.83;;
15764;SDS011;7983;50.744;7.086;2024-01-15T12:57:21;4.87;;;3.70;;
15764;SDS011;7983;50.744;7.086;2024-01-15T12:59:47;7.57;;;3.60;;
15764;SDS011;7983;50.744;7.086;2024-01-15T13:02:13;4.83;;;3.53;;
15764;SDS011;7983;50.744;7.086;2024-01-15T13:04:38;6.27;;;3.57;;
15764;SDS011;7983;50.744;7.086;2024-01-15T13:07:05;5.87;;;2.93;;
15764;SDS011;7983;50.744;7.086;2024-01-15T13:09:32;4.77;;;2.60;;
15764;SDS011;7983;50.744;7.086;2024-01-15T13:12:00;3.67;;;2.53;;
15764;SDS011;7983;50.744;7.086;2024-01-15T13:14:27;4.60;;;3.60;;
15764;SDS011;7983;50.744;7.086;2024-01-15T13:16:56;5.27;;;2.80;;
15764;SDS011;7983;50.744;7.086;2024-01-15T13:19:22;5.70;;;2.77;;
15764;SDS011;7983;50.744;7.086;2024-01-15T13:21:47;5.40;;;3.20;;
15764;SDS011;7983;50.744;7.086;2024-01-15T13:24:16;5.63;;;3.17;;
15764;SDS011;7983;50.744;7.086;2024-01-15T13:26:44;5.50;;;2.97;;
15764;SDS011;7983;50.744;7.086;2024-01-15T13:29:09;4.63;;;2.90;;
15764;SDS011;7983;50.744;7.086;2024-01-15T13:31:35;7.13;;;3.50;;
15764;SDS011;7983;50.744;7.086;2024-01-15T13:34:03;5.53;;;3.20;;
15764;SDS011;7983;50.744;7.086;2024-01-15T13:39:20;4.90;;;2.97;;
15764;SDS011;7983;50.744;7.086;2024-01-15T13:48:22;3.90;;;2.47;;
15764;SDS011;7983;50.744;7.086;2024-01-15T13:50:48;5.13;;;2.70;;
15764;SDS011;7983;50.744;7.086;2024-01-15T13:53:15;5.73;;;2.73;;
15764;SDS011;7983;50.744;7.086;2024-01-15T13:55:41;3.00;;;2.17;;
15764;SDS011;7983;50.744;7.086;2024-01-15T13:58:07;4.30;;;2.53;;
15764;SDS011;7983;50.744;7.086;2024-01-15T14:00:34;3.93;;;2.50;;
15764;SDS011;7983;50.744;7.086;2024-01-15T14:03:00;3.47;;;2.40;;
15764;SDS011;7983;50.744;7.086;2024-01-15T14:05:28;3.73;;;2.33;;
15764;SDS011;7983;50.744;7.086;2024-01-15T14:07:56;5.07;;;2.40;;
15764;SDS011;7983;50.744;7.086;2024-01-15T14:10:23;4.47;;;2.20;;
15764;SDS011;7983;50.744;7.086;2024-01-15T14:12:49;4.37;;;2.30;;
15764;SDS011;7983;50.744;7.086;2024-01-15T14:15:14;2.60;;;2.13;;
15764;SDS011;7983;50.744;7.086;2024-01-15T14:17:40;4.10;;;2.50;;
15764;SDS011;7983;50.744;7.086;2024-01-15T14:20:06;6.03;;;2.93;;
15764;SDS011;7983;50.744;7.086;2024-01-15T14:22:34;3.67;;;2.43;;
15764;SDS011;7983;50.744;7.086;2024-01-15T14:25:02;5.07;;;2.40;;
15764;SDS011;7983;50.744;7.086;2024-01-15T14:27:31;3.83;;;2.40;;
15764;SDS011;7983;50.744;7.086;2024-01-15T14:29:57;3.97;;;2.50;;
15764;SDS011;7983;50.744;7.086;2024-01-15T14:32:25;3.30;;;2.20;;
15764;SDS011;7983;50.744;7.086;2024-01-15T14:34:51;3.20;;;2.13;;
15764;SDS011;7983;50.744;7.086;2024-01-15T14:37:16;3.70;;;2.17;;
15764;SDS011;7983;50.744;7.086;2024-01-15T14:39:42;3.77;;;2.10;;
15764;SDS011;7983;50.744;7.086;2024-01-15T14:42:10;4.07;;;1.83;;
15764;SDS011;7983;50.744;7.086;2024-01-15T14:44:38;3.03;;;1.73;;
15764;SDS011;7983;50.744;7.086;2024-01-15T14:47:06;2.70;;;1.53;;
15764;SDS011;7983;50.744;7.086;2024-01-15T14:49:33;4.30;;;2.00;;
15764;SDS011;7983;50.744;7.086;2024-01-15T14:52:01;2.03;;;1.57;;
15764;SDS011;7983;50.744;7.086;2024-01-15T14:54:27;2.70;;;1.73;;
15764;SDS011;7983;50.744;7.086;2024-01-15T14:56:53;2.77;;;1.60;;
15764;SDS011;7983;50.744;7.086;2024-01-15T14:59:19;2.60;;;1.47;;
15764;SDS011;7983;50.744;7.086;2024-01-15T15:01:47;2.77;;;1.40;;
15764;SDS011;7983;50.744;7.086;2024-01-15T15:04:13;2.23;;;1.50;;
15764;SDS011;7983;50.744;7.086;2024-01-15T15:06:38;2.03;;;1.23;;
15764;SDS011;7983;50.744;7.086;2024-01-15T15:09:04;2.53;;;1.60;;
15764;SDS011;7983;50.744;7.086;2024-01-15T15:11:35;2.37;;;1.67;;
15764;SDS011;7983;50.744;7.086;2024-01-15T15:14:03;1.50;;;1.40;;
15764;SDS011;7983;50.744;7.086;2024-01-15T15:16:29;1.73;;;1.50;;
15764;SDS011;7983;50.744;7.086;2024-01-15T15:18:58;2.10;;;1.70;;
15764;SDS011;7983;50.744;7.086;2024-01-15T15:21:23;2.50;;;1.67;;
15764;SDS011;7983;50.744;7.086;2024-01-15T15:23:49;2.13;;;1.87;;
15764;SDS011;7983;50.744;7.086;2024-01-15T15:26:17;2.57;;;1.77;;
15764;SDS011;7983;50.744;7.086;2024-01-15T15:28:45;3.37;;;2.13;;